Monument, Colorado
Current Conditions -  °F | °C
As of 9:58 AM on Thursday 27 Nov 2014 (Local Time) from KAFF Reporting Station
Clear Clear  
Wind Chill: 58°   Ceiling: Unl
Heat Index: 58°   Visibility: 10mi
Dew Point:   Wind: 6mph
Humidity: 14%   Direction: NA
Pressure: 30.3"   Gusts: 17mph
Location:  39.09°N, 104.87°W
Report Text: KAFF 271658Z AUTO VRB05G15KT 10SM CLR 15/M13 A3030 RMK AO2 SLP260 T01451134
Loading
Personal Weather Stations






























Interactive Weather Map New forecast layout! Learn more

10-Day Weather Forecast

Advertisements
Track Severe Weather on mobile